sensor_id;sensor_type;location;lat;lon;timestamp;temperature;humidity
42201;DHT22;27869;51.442;7.540;2022-07-22T00:02:26;16.90;99.90
42201;DHT22;27869;51.442;7.540;2022-07-22T00:04:53;16.90;99.90
42201;DHT22;27869;51.442;7.540;2022-07-22T00:07:19;16.90;99.90
42201;DHT22;27869;51.442;7.540;2022-07-22T00:09:46;16.90;99.90
42201;DHT22;27869;51.442;7.540;2022-07-22T00:12:15;16.90;99.90
42201;DHT22;27869;51.442;7.540;2022-07-22T00:14:41;16.90;99.90
42201;DHT22;27869;51.442;7.540;2022-07-22T00:17:09;16.90;99.90
42201;DHT22;27869;51.442;7.540;2022-07-22T00:19:36;16.90;99.90
42201;DHT22;27869;51.442;7.540;2022-07-22T00:22:03;16.90;99.90
42201;DHT22;27869;51.442;7.540;2022-07-22T00:24:30;16.80;99.90
42201;DHT22;27869;51.442;7.540;2022-07-22T00:26:57;16.80;99.90
42201;DHT22;27869;51.442;7.540;2022-07-22T00:29:25;16.80;99.90
42201;DHT22;27869;51.442;7.540;2022-07-22T00:31:52;16.80;99.90
42201;DHT22;27869;51.442;7.540;2022-07-22T00:34:19;16.70;99.90
42201;DHT22;27869;51.442;7.540;2022-07-22T00:36:46;16.70;99.90
42201;DHT22;27869;51.442;7.540;2022-07-22T00:39:13;16.70;99.90
42201;DHT22;27869;51.442;7.540;2022-07-22T00:41:40;16.70;99.90
42201;DHT22;27869;51.442;7.540;2022-07-22T00:44:08;16.60;99.90
42201;DHT22;27869;51.442;7.540;2022-07-22T00:46:37;16.60;99.90
42201;DHT22;27869;51.442;7.540;2022-07-22T00:49:06;16.60;99.90
42201;DHT22;27869;51.442;7.540;2022-07-22T00:51:33;16.60;99.90
42201;DHT22;27869;51.442;7.540;2022-07-22T00:54:01;16.60;99.90
42201;DHT22;27869;51.442;7.540;2022-07-22T00:56:29;16.50;99.90
42201;DHT22;27869;51.442;7.540;2022-07-22T00:58:59;16.50;99.90
42201;DHT22;27869;51.442;7.540;2022-07-22T01:01:28;16.50;99.90
42201;DHT22;27869;51.442;7.540;2022-07-22T01:03:56;16.50;99.90
42201;DHT22;27869;51.442;7.540;2022-07-22T01:06:23;16.50;99.90
42201;DHT22;27869;51.442;7.540;2022-07-22T01:08:50;16.50;99.90
42201;DHT22;27869;51.442;7.540;2022-07-22T01:11:18;16.50;99.90
42201;DHT22;27869;51.442;7.540;2022-07-22T01:13:47;16.50;99.90
42201;DHT22;27869;51.442;7.540;2022-07-22T01:16:15;16.50;99.90
42201;DHT22;27869;51.442;7.540;2022-07-22T01:18:44;16.50;99.90
42201;DHT22;27869;51.442;7.540;2022-07-22T01:21:14;16.50;99.90
42201;DHT22;27869;51.442;7.540;2022-07-22T01:23:41;16.50;99.90
42201;DHT22;27869;51.442;7.540;2022-07-22T01:26:09;16.50;99.90
42201;DHT22;27869;51.442;7.540;2022-07-22T01:28:36;16.50;99.90
42201;DHT22;27869;51.442;7.540;2022-07-22T01:31:03;16.50;99.90
42201;DHT22;27869;51.442;7.540;2022-07-22T01:33:30;16.50;99.90
42201;DHT22;27869;51.442;7.540;2022-07-22T01:35:57;16.50;99.90
42201;DHT22;27869;51.442;7.540;2022-07-22T01:38:26;16.50;99.90
42201;DHT22;27869;51.442;7.540;2022-07-22T01:40:53;16.50;99.90
42201;DHT22;27869;51.442;7.540;2022-07-22T01:43:20;16.50;99.90
42201;DHT22;27869;51.442;7.540;2022-07-22T01:45:50;16.50;99.90
42201;DHT22;27869;51.442;7.540;2022-07-22T01:48:18;16.50;99.90
42201;DHT22;27869;51.442;7.540;2022-07-22T01:50:45;16.50;99.90
42201;DHT22;27869;51.442;7.540;2022-07-22T01:53:12;16.50;99.90
42201;DHT22;27869;51.442;7.540;2022-07-22T01:55:41;16.50;99.90
42201;DHT22;27869;51.442;7.540;2022-07-22T01:58:08;16.40;99.90
42201;DHT22;27869;51.442;7.540;2022-07-22T02:00:35;16.40;99.90
42201;DHT22;27869;51.442;7.540;2022-07-22T02:03:02;16.40;99.90
42201;DHT22;27869;51.442;7.540;2022-07-22T02:05:30;16.40;99.90
42201;DHT22;27869;51.442;7.540;2022-07-22T02:08:01;16.40;99.90
42201;DHT22;27869;51.442;7.540;2022-07-22T02:10:28;16.40;99.90
42201;DHT22;27869;51.442;7.540;2022-07-22T02:12:57;16.30;99.90
42201;DHT22;27869;51.442;7.540;2022-07-22T02:15:24;16.40;99.90
42201;DHT22;27869;51.442;7.540;2022-07-22T02:17:51;16.30;99.90
42201;DHT22;27869;51.442;7.540;2022-07-22T02:20:18;16.30;99.90
42201;DHT22;27869;51.442;7.540;2022-07-22T02:22:45;16.30;99.90
42201;DHT22;27869;51.442;7.540;2022-07-22T02:25:12;16.30;99.90
42201;DHT22;27869;51.442;7.540;2022-07-22T02:27:40;16.30;99.90
42201;DHT22;27869;51.442;7.540;2022-07-22T02:30:10;16.30;99.90
42201;DHT22;27869;51.442;7.540;2022-07-22T02:32:37;16.20;99.90
42201;DHT22;27869;51.442;7.540;2022-07-22T02:35:05;16.20;99.90
42201;DHT22;27869;51.442;7.540;2022-07-22T02:37:32;16.30;99.90
42201;DHT22;27869;51.442;7.540;2022-07-22T02:39:59;16.20;99.90
42201;DHT22;27869;51.442;7.540;2022-07-22T02:42:27;16.20;99.90
42201;DHT22;27869;51.442;7.540;2022-07-22T02:44:53;16.20;99.90
42201;DHT22;27869;51.442;7.540;2022-07-22T02:47:22;16.20;99.90
42201;DHT22;27869;51.442;7.540;2022-07-22T02:49:49;16.20;99.90
42201;DHT22;27869;51.442;7.540;2022-07-22T02:52:16;16.20;99.90
42201;DHT22;27869;51.442;7.540;2022-07-22T02:54:42;16.20;99.90
42201;DHT22;27869;51.442;7.540;2022-07-22T02:57:09;16.20;99.90
42201;DHT22;27869;51.442;7.540;2022-07-22T02:59:36;16.30;99.90
42201;DHT22;27869;51.442;7.540;2022-07-22T03:02:03;16.20;99.90
42201;DHT22;27869;51.442;7.540;2022-07-22T03:04:32;16.30;99.90
42201;DHT22;27869;51.442;7.540;2022-07-22T03:06:59;16.30;99.90
42201;DHT22;27869;51.442;7.540;2022-07-22T03:09:25;16.30;99.90
42201;DHT22;27869;51.442;7.540;2022-07-22T03:11:52;16.20;99.90
42201;DHT22;27869;51.442;7.540;2022-07-22T03:14:19;16.20;99.90
42201;DHT22;27869;51.442;7.540;2022-07-22T03:16:47;16.20;99.90
42201;DHT22;27869;51.442;7.540;2022-07-22T03:19:14;16.30;99.90
42201;DHT22;27869;51.442;7.540;2022-07-22T03:21:43;16.30;99.90
42201;DHT22;27869;51.442;7.540;2022-07-22T03:24:10;16.30;99.90
42201;DHT22;27869;51.442;7.540;2022-07-22T03:26:36;16.30;99.90
42201;DHT22;27869;51.442;7.540;2022-07-22T03:29:03;16.20;99.90
42201;DHT22;27869;51.442;7.540;2022-07-22T03:31:30;16.20;99.90
42201;DHT22;27869;51.442;7.540;2022-07-22T03:33:57;16.20;99.90
42201;DHT22;27869;51.442;7.540;2022-07-22T03:36:24;16.20;99.90
42201;DHT22;27869;51.442;7.540;2022-07-22T03:38:52;16.20;99.90
42201;DHT22;27869;51.442;7.540;2022-07-22T03:41:19;16.20;99.90
42201;DHT22;27869;51.442;7.540;2022-07-22T03:43:46;16.20;99.90
42201;DHT22;27869;51.442;7.540;2022-07-22T03:46:13;16.20;99.90
42201;DHT22;27869;51.442;7.540;2022-07-22T03:48:40;16.20;99.90
42201;DHT22;27869;51.442;7.540;2022-07-22T03:51:07;16.20;99.90
42201;DHT22;27869;51.442;7.540;2022-07-22T03:53:34;16.20;99.90
42201;DHT22;27869;51.442;7.540;2022-07-22T03:56:03;16.20;99.90
42201;DHT22;27869;51.442;7.540;2022-07-22T03:58:30;16.20;99.90
42201;DHT22;27869;51.442;7.540;2022-07-22T04:00:57;16.20;99.90
42201;DHT22;27869;51.442;7.540;2022-07-22T04:03:24;16.20;99.90
42201;DHT22;27869;51.442;7.540;2022-07-22T04:05:51;16.30;99.90
42201;DHT22;27869;51.442;7.540;2022-07-22T04:08:18;16.30;99.90
42201;DHT22;27869;51.442;7.540;2022-07-22T04:10:45;16.30;99.90
42201;DHT22;27869;51.442;7.540;2022-07-22T04:13:14;16.30;99.90
42201;DHT22;27869;51.442;7.540;2022-07-22T04:15:40;16.30;99.90
42201;DHT22;27869;51.442;7.540;2022-07-22T04:18:07;16.30;99.90
42201;DHT22;27869;51.442;7.540;2022-07-22T04:20:34;16.30;99.90
42201;DHT22;27869;51.442;7.540;2022-07-22T04:23:01;16.20;99.90
42201;DHT22;27869;51.442;7.540;2022-07-22T04:25:28;16.20;99.90
42201;DHT22;27869;51.442;7.540;2022-07-22T04:27:55;16.20;99.90
42201;DHT22;27869;51.442;7.540;2022-07-22T04:30:23;16.20;99.90
42201;DHT22;27869;51.442;7.540;2022-07-22T04:32:51;16.20;99.90
42201;DHT22;27869;51.442;7.540;2022-07-22T04:35:18;16.20;99.90
42201;DHT22;27869;51.442;7.540;2022-07-22T04:37:45;16.20;99.90
42201;DHT22;27869;51.442;7.540;2022-07-22T04:40:12;16.20;99.90
42201;DHT22;27869;51.442;7.540;2022-07-22T04:42:39;16.20;99.90
42201;DHT22;27869;51.442;7.540;2022-07-22T04:45:06;16.20;99.90
42201;DHT22;27869;51.442;7.540;2022-07-22T04:47:34;16.20;99.90
42201;DHT22;27869;51.442;7.540;2022-07-22T04:50:01;16.20;99.90
42201;DHT22;27869;51.442;7.540;2022-07-22T04:52:28;16.20;99.90
42201;DHT22;27869;51.442;7.540;2022-07-22T04:54:55;16.20;99.90
42201;DHT22;27869;51.442;7.540;2022-07-22T04:57:24;16.20;99.90
42201;DHT22;27869;51.442;7.540;2022-07-22T04:59:51;16.20;99.90
42201;DHT22;27869;51.442;7.540;2022-07-22T05:02:19;16.20;99.90
42201;DHT22;27869;51.442;7.540;2022-07-22T05:04:47;16.20;99.90
42201;DHT22;27869;51.442;7.540;2022-07-22T05:07:14;16.20;99.90
42201;DHT22;27869;51.442;7.540;2022-07-22T05:09:41;16.20;99.90
42201;DHT22;27869;51.442;7.540;2022-07-22T05:12:08;16.10;99.90
42201;DHT22;27869;51.442;7.540;2022-07-22T05:14:35;16.20;99.90
42201;DHT22;27869;51.442;7.540;2022-07-22T05:17:02;16.10;99.90
42201;DHT22;27869;51.442;7.540;2022-07-22T05:19:29;16.10;99.90
42201;DHT22;27869;51.442;7.540;2022-07-22T05:21:57;16.20;99.90
42201;DHT22;27869;51.442;7.540;2022-07-22T05:24:24;16.10;99.90
42201;DHT22;27869;51.442;7.540;2022-07-22T05:26:51;16.10;99.90
42201;DHT22;27869;51.442;7.540;2022-07-22T05:29:18;16.20;99.90
42201;DHT22;27869;51.442;7.540;2022-07-22T05:31:45;16.20;99.90
42201;DHT22;27869;51.442;7.540;2022-07-22T05:34:12;16.20;99.90
42201;DHT22;27869;51.442;7.540;2022-07-22T05:36:39;16.20;99.90
42201;DHT22;27869;51.442;7.540;2022-07-22T05:39:07;16.20;99.90
42201;DHT22;27869;51.442;7.540;2022-07-22T05:41:34;16.30;99.90
42201;DHT22;27869;51.442;7.540;2022-07-22T05:44:01;16.30;99.90
42201;DHT22;27869;51.442;7.540;2022-07-22T05:46:28;16.30;99.90
42201;DHT22;27869;51.442;7.540;2022-07-22T05:48:54;16.30;99.90
42201;DHT22;27869;51.442;7.540;2022-07-22T05:51:21;16.30;99.90
42201;DHT22;27869;51.442;7.540;2022-07-22T05:53:49;16.30;99.90
42201;DHT22;27869;51.442;7.540;2022-07-22T05:56:18;16.30;99.90
42201;DHT22;27869;51.442;7.540;2022-07-22T05:58:45;16.30;99.90
42201;DHT22;27869;51.442;7.540;2022-07-22T06:01:12;16.30;99.90
42201;DHT22;27869;51.442;7.540;2022-07-22T06:03:39;16.40;99.90
42201;DHT22;27869;51.442;7.540;2022-07-22T06:06:07;16.40;99.90
42201;DHT22;27869;51.442;7.540;2022-07-22T06:08:35;16.30;99.90
42201;DHT22;27869;51.442;7.540;2022-07-22T06:11:02;16.30;99.90
42201;DHT22;27869;51.442;7.540;2022-07-22T06:13:31;16.30;99.90
42201;DHT22;27869;51.442;7.540;2022-07-22T06:15:58;16.30;99.90
42201;DHT22;27869;51.442;7.540;2022-07-22T06:18:25;16.40;99.90
42201;DHT22;27869;51.442;7.540;2022-07-22T06:20:52;16.40;99.90
42201;DHT22;27869;51.442;7.540;2022-07-22T06:23:19;16.40;99.90
42201;DHT22;27869;51.442;7.540;2022-07-22T06:25:46;16.40;99.90
42201;DHT22;27869;51.442;7.540;2022-07-22T06:28:13;16.50;99.90
42201;DHT22;27869;51.442;7.540;2022-07-22T06:30:41;16.50;99.90
42201;DHT22;27869;51.442;7.540;2022-07-22T06:33:08;16.50;99.90
42201;DHT22;27869;51.442;7.540;2022-07-22T06:35:38;16.50;99.90
42201;DHT22;27869;51.442;7.540;2022-07-22T06:38:05;16.50;99.90
42201;DHT22;27869;51.442;7.540;2022-07-22T06:40:32;16.50;99.90
42201;DHT22;27869;51.442;7.540;2022-07-22T06:43:00;16.50;99.90
42201;DHT22;27869;51.442;7.540;2022-07-22T06:45:27;16.50;99.90
42201;DHT22;27869;51.442;7.540;2022-07-22T06:47:55;16.50;99.90
42201;DHT22;27869;51.442;7.540;2022-07-22T06:50:23;16.40;99.90
42201;DHT22;27869;51.442;7.540;2022-07-22T06:52:50;16.40;99.90
42201;DHT22;27869;51.442;7.540;2022-07-22T06:55:18;16.40;99.90
42201;DHT22;27869;51.442;7.540;2022-07-22T06:57:45;16.30;99.90
42201;DHT22;27869;51.442;7.540;2022-07-22T07:00:12;16.30;99.90
42201;DHT22;27869;51.442;7.540;2022-07-22T07:02:40;16.30;99.90
42201;DHT22;27869;51.442;7.540;2022-07-22T07:05:08;16.30;99.90
42201;DHT22;27869;51.442;7.540;2022-07-22T07:07:35;16.30;99.90
42201;DHT22;27869;51.442;7.540;2022-07-22T07:10:03;16.40;99.90
42201;DHT22;27869;51.442;7.540;2022-07-22T07:12:30;16.30;99.90
42201;DHT22;27869;51.442;7.540;2022-07-22T07:14:57;16.30;99.90
42201;DHT22;27869;51.442;7.540;2022-07-22T07:17:24;16.30;99.90
42201;DHT22;27869;51.442;7.540;2022-07-22T07:19:51;16.40;99.90
42201;DHT22;27869;51.442;7.540;2022-07-22T07:22:19;16.40;99.90
42201;DHT22;27869;51.442;7.540;2022-07-22T07:24:46;16.40;99.90
42201;DHT22;27869;51.442;7.540;2022-07-22T07:27:13;16.40;99.90
42201;DHT22;27869;51.442;7.540;2022-07-22T07:29:40;16.40;99.90
42201;DHT22;27869;51.442;7.540;2022-07-22T07:32:07;16.40;99.90
42201;DHT22;27869;51.442;7.540;2022-07-22T07:34:34;16.50;99.90
42201;DHT22;27869;51.442;7.540;2022-07-22T07:37:01;16.40;99.90
42201;DHT22;27869;51.442;7.540;2022-07-22T07:39:29;16.50;99.90
42201;DHT22;27869;51.442;7.540;2022-07-22T07:41:56;16.50;99.90
42201;DHT22;27869;51.442;7.540;2022-07-22T07:44:23;16.50;99.90
42201;DHT22;27869;51.442;7.540;2022-07-22T07:46:50;16.50;99.90
42201;DHT22;27869;51.442;7.540;2022-07-22T07:49:16;16.50;99.90
42201;DHT22;27869;51.442;7.540;2022-07-22T07:51:44;16.60;99.90
42201;DHT22;27869;51.442;7.540;2022-07-22T07:54:10;16.60;99.90
42201;DHT22;27869;51.442;7.540;2022-07-22T07:56:39;16.60;99.90
42201;DHT22;27869;51.442;7.540;2022-07-22T07:59:06;16.60;99.90
42201;DHT22;27869;51.442;7.540;2022-07-22T08:01:33;16.60;99.90
42201;DHT22;27869;51.442;7.540;2022-07-22T08:04:00;16.70;99.90
42201;DHT22;27869;51.442;7.540;2022-07-22T08:06:27;16.70;99.90
42201;DHT22;27869;51.442;7.540;2022-07-22T08:08:54;16.70;99.90
42201;DHT22;27869;51.442;7.540;2022-07-22T08:11:21;16.70;99.90
42201;DHT22;27869;51.442;7.540;2022-07-22T08:13:50;16.80;99.90
42201;DHT22;27869;51.442;7.540;2022-07-22T08:16:17;16.80;99.90
42201;DHT22;27869;51.442;7.540;2022-07-22T08:18:43;16.90;99.90
42201;DHT22;27869;51.442;7.540;2022-07-22T08:21:10;16.90;99.90
42201;DHT22;27869;51.442;7.540;2022-07-22T08:23:37;16.90;99.90
42201;DHT22;27869;51.442;7.540;2022-07-22T08:26:04;17.00;99.90
42201;DHT22;27869;51.442;7.540;2022-07-22T08:28:33;17.00;99.90
42201;DHT22;27869;51.442;7.540;2022-07-22T08:31:01;17.10;99.90
42201;DHT22;27869;51.442;7.540;2022-07-22T08:33:28;17.10;99.90
42201;DHT22;27869;51.442;7.540;2022-07-22T08:35:55;17.20;99.90
42201;DHT22;27869;51.442;7.540;2022-07-22T08:38:22;17.20;99.90
42201;DHT22;27869;51.442;7.540;2022-07-22T08:40:49;17.20;99.90
42201;DHT22;27869;51.442;7.540;2022-07-22T08:43:16;17.30;99.90
42201;DHT22;27869;51.442;7.540;2022-07-22T08:45:43;17.40;99.90
42201;DHT22;27869;51.442;7.540;2022-07-22T08:48:11;17.40;99.90
42201;DHT22;27869;51.442;7.540;2022-07-22T08:50:38;17.30;99.90
42201;DHT22;27869;51.442;7.540;2022-07-22T08:53:08;17.40;99.90
42201;DHT22;27869;51.442;7.540;2022-07-22T08:55:41;17.40;99.90
42201;DHT22;27869;51.442;7.540;2022-07-22T08:58:08;17.50;99.90
42201;DHT22;27869;51.442;7.540;2022-07-22T09:00:35;17.50;99.90
42201;DHT22;27869;51.442;7.540;2022-07-22T09:03:17;17.50;99.90
42201;DHT22;27869;51.442;7.540;2022-07-22T09:05:46;17.50;99.90
42201;DHT22;27869;51.442;7.540;2022-07-22T09:08:13;17.60;99.90
42201;DHT22;27869;51.442;7.540;2022-07-22T09:10:40;17.60;99.90
42201;DHT22;27869;51.442;7.540;2022-07-22T09:13:09;17.70;99.90
42201;DHT22;27869;51.442;7.540;2022-07-22T09:15:38;17.70;99.90
42201;DHT22;27869;51.442;7.540;2022-07-22T09:18:07;17.70;99.90
42201;DHT22;27869;51.442;7.540;2022-07-22T09:20:36;17.70;99.90
42201;DHT22;27869;51.442;7.540;2022-07-22T09:23:10;17.80;99.90
42201;DHT22;27869;51.442;7.540;2022-07-22T09:25:38;17.80;99.90
42201;DHT22;27869;51.442;7.540;2022-07-22T09:28:11;17.90;99.90
42201;DHT22;27869;51.442;7.540;2022-07-22T09:30:40;17.90;99.90
42201;DHT22;27869;51.442;7.540;2022-07-22T09:33:08;17.90;99.90
42201;DHT22;27869;51.442;7.540;2022-07-22T09:35:36;17.90;99.90
42201;DHT22;27869;51.442;7.540;2022-07-22T09:38:05;17.90;99.90
42201;DHT22;27869;51.442;7.540;2022-07-22T09:40:35;17.90;99.90
42201;DHT22;27869;51.442;7.540;2022-07-22T09:43:04;18.00;99.90
42201;DHT22;27869;51.442;7.540;2022-07-22T09:45:33;18.00;99.90
42201;DHT22;27869;51.442;7.540;2022-07-22T09:48:00;18.00;99.90
42201;DHT22;27869;51.442;7.540;2022-07-22T09:50:28;18.00;99.90
42201;DHT22;27869;51.442;7.540;2022-07-22T09:52:58;18.00;99.90
42201;DHT22;27869;51.442;7.540;2022-07-22T09:55:26;18.00;99.90
42201;DHT22;27869;51.442;7.540;2022-07-22T09:57:56;18.00;99.90
42201;DHT22;27869;51.442;7.540;2022-07-22T10:00:26;18.10;99.90
42201;DHT22;27869;51.442;7.540;2022-07-22T10:02:55;18.10;99.90
42201;DHT22;27869;51.442;7.540;2022-07-22T10:05:24;18.10;99.90
42201;DHT22;27869;51.442;7.540;2022-07-22T10:07:52;18.20;99.90
42201;DHT22;27869;51.442;7.540;2022-07-22T10:10:22;18.20;99.90
42201;DHT22;27869;51.442;7.540;2022-07-22T10:12:51;18.20;99.90
42201;DHT22;27869;51.442;7.540;2022-07-22T10:15:19;18.20;99.90
42201;DHT22;27869;51.442;7.540;2022-07-22T10:17:48;18.20;99.90
42201;DHT22;27869;51.442;7.540;2022-07-22T10:20:17;18.20;99.90
42201;DHT22;27869;51.442;7.540;2022-07-22T10:22:48;18.30;99.90
42201;DHT22;27869;51.442;7.540;2022-07-22T10:25:17;18.20;99.90
42201;DHT22;27869;51.442;7.540;2022-07-22T10:27:48;18.30;99.90
42201;DHT22;27869;51.442;7.540;2022-07-22T10:30:16;18.30;99.90
42201;DHT22;27869;51.442;7.540;2022-07-22T10:32:44;18.30;99.90
42201;DHT22;27869;51.442;7.540;2022-07-22T10:35:22;18.40;99.90
42201;DHT22;27869;51.442;7.540;2022-07-22T10:37:52;18.40;99.90
42201;DHT22;27869;51.442;7.540;2022-07-22T10:40:21;18.40;99.90
42201;DHT22;27869;51.442;7.540;2022-07-22T10:43:20;18.40;99.90
42201;DHT22;27869;51.442;7.540;2022-07-22T10:45:50;18.50;99.90
42201;DHT22;27869;51.442;7.540;2022-07-22T10:48:19;18.50;99.90
42201;DHT22;27869;51.442;7.540;2022-07-22T10:51:06;18.60;99.90
42201;DHT22;27869;51.442;7.540;2022-07-22T10:53:46;18.60;99.90
42201;DHT22;27869;51.442;7.540;2022-07-22T10:56:17;18.70;99.90
42201;DHT22;27869;51.442;7.540;2022-07-22T10:58:54;18.70;99.90
42201;DHT22;27869;51.442;7.540;2022-07-22T11:01:24;18.80;99.90
42201;DHT22;27869;51.442;7.540;2022-07-22T11:03:51;18.70;99.90
42201;DHT22;27869;51.442;7.540;2022-07-22T11:06:28;18.80;99.90
42201;DHT22;27869;51.442;7.540;2022-07-22T11:08:57;18.80;99.90
42201;DHT22;27869;51.442;7.540;2022-07-22T11:11:34;18.80;99.90
42201;DHT22;27869;51.442;7.540;2022-07-22T11:14:14;18.80;99.90
42201;DHT22;27869;51.442;7.540;2022-07-22T11:16:42;18.90;99.90
42201;DHT22;27869;51.442;7.540;2022-07-22T11:19:09;19.00;99.90
42201;DHT22;27869;51.442;7.540;2022-07-22T11:21:36;19.10;99.90
42201;DHT22;27869;51.442;7.540;2022-07-22T11:24:05;19.10;99.90
42201;DHT22;27869;51.442;7.540;2022-07-22T11:26:36;19.10;99.90
42201;DHT22;27869;51.442;7.540;2022-07-22T11:29:05;19.20;99.90
42201;DHT22;27869;51.442;7.540;2022-07-22T11:31:32;19.20;99.90
42201;DHT22;27869;51.442;7.540;2022-07-22T11:34:07;19.20;99.90
42201;DHT22;27869;51.442;7.540;2022-07-22T11:36:34;19.20;99.90
42201;DHT22;27869;51.442;7.540;2022-07-22T11:39:02;19.30;99.90
42201;DHT22;27869;51.442;7.540;2022-07-22T11:41:29;19.40;99.90
42201;DHT22;27869;51.442;7.540;2022-07-22T11:43:57;19.40;99.90
42201;DHT22;27869;51.442;7.540;2022-07-22T11:46:26;19.40;99.90
42201;DHT22;27869;51.442;7.540;2022-07-22T11:48:54;19.40;99.90
42201;DHT22;27869;51.442;7.540;2022-07-22T11:51:26;19.40;99.90
42201;DHT22;27869;51.442;7.540;2022-07-22T11:53:53;19.40;99.90
42201;DHT22;27869;51.442;7.540;2022-07-22T11:56:20;19.50;99.90
42201;DHT22;27869;51.442;7.540;2022-07-22T11:58:48;19.50;99.90
42201;DHT22;27869;51.442;7.540;2022-07-22T12:01:17;19.50;99.90
42201;DHT22;27869;51.442;7.540;2022-07-22T12:03:47;19.60;99.90
42201;DHT22;27869;51.442;7.540;2022-07-22T12:06:16;19.70;99.90
42201;DHT22;27869;51.442;7.540;2022-07-22T12:08:46;19.70;99.90
42201;DHT22;27869;51.442;7.540;2022-07-22T12:11:15;19.70;99.90
42201;DHT22;27869;51.442;7.540;2022-07-22T12:13:43;19.80;99.90
42201;DHT22;27869;51.442;7.540;2022-07-22T12:16:25;19.80;99.90
42201;DHT22;27869;51.442;7.540;2022-07-22T12:18:56;19.90;99.90
42201;DHT22;27869;51.442;7.540;2022-07-22T12:21:24;20.00;99.90
42201;DHT22;27869;51.442;7.540;2022-07-22T12:23:53;20.10;99.90
42201;DHT22;27869;51.442;7.540;2022-07-22T12:26:40;20.10;99.90
42201;DHT22;27869;51.442;7.540;2022-07-22T12:29:20;20.10;99.90
42201;DHT22;27869;51.442;7.540;2022-07-22T12:31:48;20.00;99.90
42201;DHT22;27869;51.442;7.540;2022-07-22T12:34:35;20.10;99.90
42201;DHT22;27869;51.442;7.540;2022-07-22T12:37:13;20.10;99.90
42201;DHT22;27869;51.442;7.540;2022-07-22T12:39:55;20.10;99.90
42201;DHT22;27869;51.442;7.540;2022-07-22T12:42:22;20.20;99.90
42201;DHT22;27869;51.442;7.540;2022-07-22T12:44:58;20.20;99.90
42201;DHT22;27869;51.442;7.540;2022-07-22T12:47:42;20.20;99.90
42201;DHT22;27869;51.442;7.540;2022-07-22T12:50:23;20.30;99.90
42201;DHT22;27869;51.442;7.540;2022-07-22T12:52:52;20.40;99.90
42201;DHT22;27869;51.442;7.540;2022-07-22T12:55:19;20.40;99.90
42201;DHT22;27869;51.442;7.540;2022-07-22T12:57:46;20.50;99.90
42201;DHT22;27869;51.442;7.540;2022-07-22T13:00:17;20.60;99.90
42201;DHT22;27869;51.442;7.540;2022-07-22T13:02:44;20.50;99.90
42201;DHT22;27869;51.442;7.540;2022-07-22T13:05:11;20.60;99.90
42201;DHT22;27869;51.442;7.540;2022-07-22T13:07:40;20.60;99.90
42201;DHT22;27869;51.442;7.540;2022-07-22T13:10:09;20.60;99.90
42201;DHT22;27869;51.442;7.540;2022-07-22T13:12:36;20.70;99.90
42201;DHT22;27869;51.442;7.540;2022-07-22T13:15:04;20.80;99.90
42201;DHT22;27869;51.442;7.540;2022-07-22T13:17:31;20.90;99.90
42201;DHT22;27869;51.442;7.540;2022-07-22T13:19:58;21.00;99.90
42201;DHT22;27869;51.442;7.540;2022-07-22T13:22:25;21.10;99.90
42201;DHT22;27869;51.442;7.540;2022-07-22T13:24:53;21.20;99.90
42201;DHT22;27869;51.442;7.540;2022-07-22T13:27:21;21.20;99.90
42201;DHT22;27869;51.442;7.540;2022-07-22T13:29:48;21.30;99.90
42201;DHT22;27869;51.442;7.540;2022-07-22T13:32:15;21.30;99.90
42201;DHT22;27869;51.442;7.540;2022-07-22T13:34:42;21.40;99.90
42201;DHT22;27869;51.442;7.540;2022-07-22T13:37:08;21.40;99.90
42201;DHT22;27869;51.442;7.540;2022-07-22T13:39:36;21.50;99.90
42201;DHT22;27869;51.442;7.540;2022-07-22T13:42:04;21.60;99.90
42201;DHT22;27869;51.442;7.540;2022-07-22T13:44:32;21.60;99.90
42201;DHT22;27869;51.442;7.540;2022-07-22T13:47:01;21.60;99.90
42201;DHT22;27869;51.442;7.540;2022-07-22T13:49:28;21.70;99.90
42201;DHT22;27869;51.442;7.540;2022-07-22T13:51:55;21.80;99.90
42201;DHT22;27869;51.442;7.540;2022-07-22T13:54:22;21.80;99.90
42201;DHT22;27869;51.442;7.540;2022-07-22T13:56:49;21.80;99.90
42201;DHT22;27869;51.442;7.540;2022-07-22T13:59:17;21.80;99.90
42201;DHT22;27869;51.442;7.540;2022-07-22T14:01:44;21.70;99.90
42201;DHT22;27869;51.442;7.540;2022-07-22T14:04:11;21.70;99.90
42201;DHT22;27869;51.442;7.540;2022-07-22T14:06:38;21.70;99.90
42201;DHT22;27869;51.442;7.540;2022-07-22T14:09:05;21.80;99.90
42201;DHT22;27869;51.442;7.540;2022-07-22T14:11:32;21.80;99.90
42201;DHT22;27869;51.442;7.540;2022-07-22T14:13:59;21.90;99.90
42201;DHT22;27869;51.442;7.540;2022-07-22T14:16:28;21.90;99.90
42201;DHT22;27869;51.442;7.540;2022-07-22T14:19:01;22.00;99.90
42201;DHT22;27869;51.442;7.540;2022-07-22T14:21:29;22.00;99.90
42201;DHT22;27869;51.442;7.540;2022-07-22T14:23:56;21.90;99.90
42201;DHT22;27869;51.442;7.540;2022-07-22T14:26:23;22.00;99.90
42201;DHT22;27869;51.442;7.540;2022-07-22T14:28:51;21.90;99.90
42201;DHT22;27869;51.442;7.540;2022-07-22T14:31:18;21.90;99.90
42201;DHT22;27869;51.442;7.540;2022-07-22T14:33:46;21.90;99.90
42201;DHT22;27869;51.442;7.540;2022-07-22T14:36:13;21.80;99.90
42201;DHT22;27869;51.442;7.540;2022-07-22T14:38:40;21.80;99.90
42201;DHT22;27869;51.442;7.540;2022-07-22T14:41:08;21.80;99.90
42201;DHT22;27869;51.442;7.540;2022-07-22T14:43:35;21.80;99.90
42201;DHT22;27869;51.442;7.540;2022-07-22T14:46:03;21.80;99.90
42201;DHT22;27869;51.442;7.540;2022-07-22T14:48:32;21.70;99.90
42201;DHT22;27869;51.442;7.540;2022-07-22T14:51:01;21.70;99.90
42201;DHT22;27869;51.442;7.540;2022-07-22T14:53:28;21.80;99.90
42201;DHT22;27869;51.442;7.540;2022-07-22T14:55:55;21.80;99.90
42201;DHT22;27869;51.442;7.540;2022-07-22T14:58:22;21.90;99.90
42201;DHT22;27869;51.442;7.540;2022-07-22T15:00:49;21.90;99.90
42201;DHT22;27869;51.442;7.540;2022-07-22T15:03:16;22.00;99.90
42201;DHT22;27869;51.442;7.540;2022-07-22T15:05:42;22.00;99.90
42201;DHT22;27869;51.442;7.540;2022-07-22T15:08:11;22.00;99.90
42201;DHT22;27869;51.442;7.540;2022-07-22T15:10:38;22.10;99.90
42201;DHT22;27869;51.442;7.540;2022-07-22T15:13:05;22.10;99.90
42201;DHT22;27869;51.442;7.540;2022-07-22T15:15:32;22.10;99.90
42201;DHT22;27869;51.442;7.540;2022-07-22T15:18:01;22.10;99.90
42201;DHT22;27869;51.442;7.540;2022-07-22T15:20:28;22.10;99.90
42201;DHT22;27869;51.442;7.540;2022-07-22T15:22:55;22.10;99.90
42201;DHT22;27869;51.442;7.540;2022-07-22T15:25:23;21.90;99.90
42201;DHT22;27869;51.442;7.540;2022-07-22T15:27:51;21.80;99.90
42201;DHT22;27869;51.442;7.540;2022-07-22T15:30:18;21.80;99.90
42201;DHT22;27869;51.442;7.540;2022-07-22T15:32:47;21.80;99.90
42201;DHT22;27869;51.442;7.540;2022-07-22T15:35:14;21.80;99.90
42201;DHT22;27869;51.442;7.540;2022-07-22T15:37:41;21.80;99.90